createdAt,value
2022-11-29T00:01:01.523Z,10.15
2022-11-29T00:03:28.674Z,11.30
2022-11-29T00:05:55.650Z,10.88
2022-11-29T00:08:22.979Z,9.45
2022-11-29T00:10:49.888Z,10.60
2022-11-29T00:13:17.766Z,9.43
2022-11-29T00:15:44.195Z,10.45
2022-11-29T00:18:10.596Z,10.18
2022-11-29T00:20:38.876Z,10.05
2022-11-29T00:23:05.459Z,9.73
2022-11-29T00:25:31.874Z,10.63
2022-11-29T00:27:58.445Z,9.75
2022-11-29T00:30:25.026Z,9.68
2022-11-29T00:32:51.555Z,9.20
2022-11-29T00:35:18.155Z,9.77
2022-11-29T00:37:45.223Z,9.65
2022-11-29T00:40:11.866Z,9.13
2022-11-29T00:42:38.299Z,10.23
2022-11-29T00:45:05.011Z,9.55
2022-11-29T00:47:31.500Z,9.68
2022-11-29T00:49:57.960Z,9.63
2022-11-29T00:52:24.382Z,8.50
2022-11-29T00:54:50.831Z,9.20
2022-11-29T00:57:17.274Z,8.85
2022-11-29T00:59:43.703Z,9.15
2022-11-29T01:02:10.175Z,9.35
2022-11-29T01:04:36.534Z,9.57
2022-11-29T01:07:02.956Z,9.30
2022-11-29T01:09:29.495Z,8.00
2022-11-29T01:11:55.976Z,9.00
2022-11-29T01:14:22.415Z,8.18
2022-11-29T01:16:48.891Z,7.97
2022-11-29T01:19:15.311Z,9.75
2022-11-29T01:21:44.288Z,7.80
2022-11-29T01:24:10.735Z,8.27
2022-11-29T01:26:37.121Z,7.68
2022-11-29T01:29:03.532Z,9.15
2022-11-29T01:31:35.966Z,8.95
2022-11-29T01:36:29.103Z,7.10
2022-11-29T01:38:56.011Z,7.60
2022-11-29T01:41:23.897Z,8.20
2022-11-29T01:44:01.247Z,8.95
2022-11-29T01:46:29.127Z,9.45
2022-11-29T01:48:58.981Z,7.55
2022-11-29T01:51:26.781Z,9.00
2022-11-29T01:53:53.427Z,8.70
2022-11-29T01:56:20.479Z,7.18
2022-11-29T01:58:47.174Z,7.85
2022-11-29T02:01:14.319Z,7.88
2022-11-29T02:03:40.881Z,8.02
2022-11-29T02:06:07.812Z,8.27
2022-11-29T02:08:37.527Z,8.38
2022-11-29T02:11:06.991Z,7.13
2022-11-29T02:13:36.425Z,7.05
2022-11-29T02:16:13.106Z,8.85
2022-11-29T02:18:50.026Z,7.35
2022-11-29T02:21:21.254Z,8.13
2022-11-29T02:23:53.877Z,7.13
2022-11-29T02:26:35.423Z,7.60
2022-11-29T02:29:17.260Z,7.13
2022-11-29T02:32:05.009Z,9.02
2022-11-29T02:34:50.062Z,7.45
2022-11-29T02:37:22.627Z,7.80
2022-11-29T02:40:07.992Z,7.30
2022-11-29T02:42:56.542Z,7.53
2022-11-29T02:45:26.188Z,8.18
2022-11-29T02:48:06.145Z,6.68
2022-11-29T02:50:42.183Z,7.45
2022-11-29T02:53:08.603Z,7.43
2022-11-29T02:55:48.597Z,8.45
2022-11-29T02:58:15.004Z,7.43
2022-11-29T03:00:45.042Z,7.03
2022-11-29T03:03:17.598Z,7.70
2022-11-29T03:05:44.872Z,6.53
2022-11-29T03:08:16.811Z,7.20
2022-11-29T03:10:49.236Z,7.05
2022-11-29T03:15:48.965Z,6.30
2022-11-29T03:18:18.526Z,7.25
2022-11-29T03:20:47.980Z,7.43
2022-11-29T03:23:49.992Z,6.45
2022-11-29T03:26:35.124Z,6.68
2022-11-29T03:29:07.326Z,7.00
2022-11-29T03:31:45.507Z,6.18
2022-11-29T03:34:20.264Z,5.90
2022-11-29T03:36:55.969Z,6.32
2022-11-29T03:39:27.783Z,6.43
2022-11-29T03:42:02.653Z,6.35
2022-11-29T03:44:35.807Z,6.00
2022-11-29T03:47:11.575Z,7.60
2022-11-29T03:49:45.181Z,5.82
2022-11-29T03:52:17.682Z,6.72
2022-11-29T03:54:57.098Z,6.80
2022-11-29T03:57:30.729Z,6.38
2022-11-29T04:00:02.752Z,6.18
2022-11-29T04:03:07.540Z,5.95
2022-11-29T04:05:52.540Z,6.00
2022-11-29T04:08:35.494Z,6.47
2022-11-29T04:11:22.154Z,6.10
2022-11-29T04:14:06.753Z,6.32
2022-11-29T04:16:46.484Z,6.00
2022-11-29T04:19:28.191Z,6.45
2022-11-29T04:21:57.546Z,6.87
2022-11-29T04:24:26.922Z,6.15
2022-11-29T04:27:18.419Z,6.13
2022-11-29T04:29:53.658Z,6.30
2022-11-29T04:32:39.728Z,6.53
2022-11-29T04:35:29.164Z,5.30
2022-11-29T04:37:58.397Z,5.95
2022-11-29T04:40:47.768Z,6.45
2022-11-29T04:43:20.198Z,6.22
2022-11-29T04:48:22.171Z,6.32
2022-11-29T04:51:08.841Z,5.97
2022-11-29T04:53:35.246Z,5.80
2022-11-29T04:56:02.045Z,5.72
2022-11-29T04:58:28.409Z,6.03
2022-11-29T05:01:15.148Z,5.75
2022-11-29T05:03:46.880Z,5.85
2022-11-29T05:06:29.257Z,5.82
2022-11-29T05:09:06.981Z,6.18
2022-11-29T05:11:33.410Z,5.50
2022-11-29T05:14:12.506Z,5.80
2022-11-29T05:16:46.076Z,5.97
2022-11-29T05:19:12.425Z,6.38
2022-11-29T05:21:57.595Z,5.25
2022-11-29T05:24:43.071Z,5.15
2022-11-29T05:27:20.459Z,5.35
2022-11-29T05:29:58.346Z,5.72
2022-11-29T05:32:36.139Z,6.35
2022-11-29T05:35:22.860Z,6.40
2022-11-29T05:38:00.992Z,5.90
2022-11-29T05:40:39.538Z,6.20
2022-11-29T05:43:23.372Z,5.32
2022-11-29T05:45:55.618Z,5.22
2022-11-29T05:48:26.586Z,6.55
2022-11-29T05:51:04.934Z,5.22
2022-11-29T05:53:41.614Z,5.70
2022-11-29T05:56:23.189Z,6.28
2022-11-29T05:58:51.717Z,6.65
2022-11-29T06:01:25.614Z,5.82
2022-11-29T06:03:58.185Z,6.22
2022-11-29T06:06:43.658Z,6.13
2022-11-29T06:09:27.349Z,5.88
2022-11-29T06:11:56.770Z,5.68
2022-11-29T06:14:35.225Z,5.15
2022-11-29T06:17:28.756Z,6.10
2022-11-29T06:20:14.936Z,5.25
2022-11-29T06:22:51.925Z,6.28
2022-11-29T06:25:18.322Z,5.90
2022-11-29T06:28:04.743Z,6.07
2022-11-29T06:30:37.875Z,6.45
2022-11-29T06:33:10.159Z,5.68
2022-11-29T06:35:47.788Z,5.70
2022-11-29T06:38:27.736Z,5.07
2022-11-29T06:41:00.131Z,5.80
2022-11-29T06:43:28.324Z,6.00
2022-11-29T06:46:05.801Z,5.95
2022-11-29T06:48:38.514Z,5.90
2022-11-29T06:51:40.219Z,7.35
2022-11-29T06:54:28.915Z,6.43
2022-11-29T06:57:14.176Z,6.05
2022-11-29T06:59:46.374Z,5.50
2022-11-29T07:02:12.772Z,6.47
2022-11-29T07:04:51.542Z,6.32
2022-11-29T07:07:19.659Z,5.88
2022-11-29T07:09:46.341Z,6.65
2022-11-29T07:12:12.930Z,6.68
2022-11-29T07:14:39.535Z,6.28
2022-11-29T07:17:18.319Z,5.43
2022-11-29T07:19:51.121Z,5.85
2022-11-29T07:22:17.531Z,5.82
2022-11-29T07:24:47.095Z,5.85
2022-11-29T07:27:13.684Z,5.35
2022-11-29T07:29:46.108Z,6.13
2022-11-29T07:34:38.849Z,6.80
2022-11-29T07:37:11.407Z,5.72
2022-11-29T07:39:37.797Z,6.63
2022-11-29T07:42:10.258Z,6.00
2022-11-29T07:47:03.098Z,6.38
2022-11-29T07:49:29.547Z,6.38
2022-11-29T07:51:56.199Z,6.32
2022-11-29T07:54:23.485Z,5.78
2022-11-29T07:56:49.949Z,6.38
2022-11-29T07:59:16.481Z,6.90
2022-11-29T08:01:43.043Z,5.63
2022-11-29T08:04:09.575Z,6.40
2022-11-29T08:06:36.372Z,7.03
2022-11-29T08:09:02.945Z,7.20
2022-11-29T08:11:29.352Z,6.63
2022-11-29T08:13:59.737Z,6.38
2022-11-29T08:16:26.348Z,6.45
2022-11-29T08:18:53.206Z,6.90
2022-11-29T08:21:19.622Z,6.63
2022-11-29T08:23:46.448Z,6.85
2022-11-29T08:26:13.022Z,7.05
2022-11-29T08:28:39.568Z,7.10
2022-11-29T08:31:07.784Z,7.50
2022-11-29T08:33:38.102Z,7.10
2022-11-29T08:36:14.814Z,7.07
2022-11-29T08:38:41.171Z,8.43
2022-11-29T08:41:08.787Z,7.43
2022-11-29T08:43:35.582Z,7.82
2022-11-29T08:46:02.376Z,7.43
2022-11-29T08:48:28.868Z,6.72
2022-11-29T08:50:55.885Z,7.90
2022-11-29T08:53:41.943Z,7.50
2022-11-29T08:56:53.488Z,8.48
2022-11-29T08:58:59.258Z,8.77
2022-11-29T09:01:25.714Z,7.15
2022-11-29T09:04:03.082Z,8.00
2022-11-29T09:06:31.337Z,8.57
2022-11-29T09:08:58.290Z,8.52
2022-11-29T09:11:25.667Z,7.10
2022-11-29T09:13:53.352Z,7.18
2022-11-29T09:16:22.299Z,7.70
2022-11-29T09:18:52.772Z,8.38
2022-11-29T09:21:19.218Z,7.53
2022-11-29T09:23:45.963Z,8.82
2022-11-29T09:26:16.329Z,7.53
2022-11-29T09:28:42.725Z,7.53
2022-11-29T09:31:10.493Z,8.60
2022-11-29T09:33:37.032Z,9.02
2022-11-29T09:36:03.829Z,7.00
2022-11-29T09:38:30.251Z,7.32
2022-11-29T09:40:57.980Z,7.43
2022-11-29T09:43:38.372Z,8.23
2022-11-29T09:46:18.200Z,7.57
2022-11-29T09:49:03.659Z,7.55
2022-11-29T09:51:33.348Z,7.55
2022-11-29T09:54:09.291Z,7.35
2022-11-29T09:56:43.460Z,7.45
2022-11-29T09:59:13.386Z,6.78
2022-11-29T10:01:41.906Z,6.30
2022-11-29T10:04:19.195Z,7.70
2022-11-29T10:07:09.030Z,8.27
2022-11-29T10:09:42.098Z,7.95
2022-11-29T10:12:20.301Z,7.55
2022-11-29T10:15:14.038Z,7.50
2022-11-29T10:17:43.489Z,7.82
2022-11-29T10:20:30.438Z,7.97
2022-11-29T10:22:59.619Z,7.28
2022-11-29T10:25:29.651Z,7.70
2022-11-29T10:27:56.139Z,6.97
2022-11-29T10:30:22.614Z,7.13
2022-11-29T10:32:51.874Z,7.03
2022-11-29T10:35:19.704Z,7.85
2022-11-29T10:38:07.729Z,8.30
2022-11-29T10:40:34.900Z,7.78
2022-11-29T10:43:01.447Z,7.00
2022-11-29T10:45:38.996Z,7.50
2022-11-29T10:48:11.300Z,8.15
2022-11-29T10:50:39.876Z,7.43
2022-11-29T10:53:07.863Z,6.85
2022-11-29T10:55:38.629Z,6.75
2022-11-29T10:58:11.213Z,7.25
2022-11-29T11:00:57.538Z,6.90
2022-11-29T11:03:43.561Z,6.72
2022-11-29T11:06:10.012Z,7.53
2022-11-29T11:08:37.546Z,8.60
2022-11-29T11:11:04.876Z,6.70
2022-11-29T11:13:32.096Z,7.25
2022-11-29T11:16:06.895Z,7.20
2022-11-29T11:18:33.411Z,7.45
2022-11-29T11:21:01.202Z,7.00
2022-11-29T11:23:32.217Z,6.60
2022-11-29T11:26:00.702Z,7.43
2022-11-29T11:28:28.787Z,7.70
2022-11-29T11:31:03.453Z,7.18
2022-11-29T11:33:36.684Z,7.78
2022-11-29T11:36:14.073Z,6.57
2022-11-29T11:38:42.077Z,7.03
2022-11-29T11:41:14.529Z,7.30
2022-11-29T11:46:08.321Z,6.32
2022-11-29T11:48:35.240Z,7.72
2022-11-29T11:51:02.007Z,6.22
2022-11-29T11:53:30.979Z,6.60
2022-11-29T11:55:58.713Z,6.50
2022-11-29T11:58:43.288Z,6.97
2022-11-29T12:01:12.794Z,7.00
2022-11-29T12:03:50.949Z,6.65
2022-11-29T12:06:23.577Z,7.05
2022-11-29T12:08:51.193Z,6.47
2022-11-29T12:11:18.624Z,7.70
2022-11-29T12:13:56.603Z,6.80
2022-11-29T12:16:29.580Z,6.70
2022-11-29T12:19:03.010Z,6.45
2022-11-29T12:21:33.784Z,6.65
2022-11-29T12:24:03.991Z,7.18
2022-11-29T12:26:57.654Z,6.50
2022-11-29T12:29:26.597Z,8.90
2022-11-29T12:31:55.185Z,6.60
2022-11-29T12:34:22.803Z,8.55
2022-11-29T12:37:08.052Z,6.60
2022-11-29T12:39:37.499Z,6.38
2022-11-29T12:42:15.238Z,6.53
2022-11-29T12:44:44.810Z,7.22
2022-11-29T12:50:05.036Z,6.10
2022-11-29T12:52:34.466Z,6.55
2022-11-29T12:55:10.357Z,6.50
2022-11-29T12:57:44.376Z,6.72
2022-11-29T13:00:12.261Z,6.45
2022-11-29T13:02:48.527Z,6.47
2022-11-29T13:05:34.027Z,7.13
2022-11-29T13:08:30.042Z,6.93
2022-11-29T13:11:15.205Z,7.43
2022-11-29T13:13:46.827Z,6.65
2022-11-29T13:16:27.656Z,6.72
2022-11-29T13:19:06.239Z,7.72
2022-11-29T13:21:40.294Z,7.30
2022-11-29T13:24:10.185Z,6.05
2022-11-29T13:26:38.548Z,7.55
2022-11-29T13:29:06.250Z,6.70
2022-11-29T13:31:33.095Z,6.82
2022-11-29T13:34:11.839Z,6.78
2022-11-29T13:36:53.281Z,6.32
2022-11-29T13:39:38.639Z,6.95
2022-11-29T13:42:08.157Z,6.00
2022-11-29T13:44:50.878Z,8.13
2022-11-29T13:47:18.094Z,6.40
2022-11-29T13:49:58.556Z,6.18
2022-11-29T13:52:24.974Z,6.60
2022-11-29T13:55:04.434Z,6.18
2022-11-29T13:58:14.427Z,6.70
2022-11-29T14:00:33.718Z,6.40
2022-11-29T14:03:19.052Z,7.13
2022-11-29T14:05:46.579Z,7.38
2022-11-29T14:08:47.726Z,8.23
2022-11-29T14:11:17.563Z,7.63
2022-11-29T14:14:02.784Z,8.30
2022-11-29T14:16:32.110Z,7.82
2022-11-29T14:19:04.604Z,7.90
2022-11-29T14:21:49.797Z,8.57
2022-11-29T14:24:42.454Z,8.57
2022-11-29T14:27:08.782Z,7.95
2022-11-29T14:29:47.437Z,7.95
2022-11-29T14:32:23.765Z,8.93
2022-11-29T14:34:57.411Z,9.05
2022-11-29T14:37:29.257Z,8.25
2022-11-29T14:39:57.499Z,9.15
2022-11-29T14:42:25.141Z,7.90
2022-11-29T14:44:57.715Z,8.45
2022-11-29T14:47:26.448Z,7.88
2022-11-29T14:49:54.127Z,8.77
2022-11-29T14:52:24.479Z,8.25
2022-11-29T14:54:54.675Z,8.55
2022-11-29T14:57:40.231Z,9.55
2022-11-29T15:00:11.254Z,8.93
2022-11-29T15:02:57.938Z,9.38
2022-11-29T15:05:53.856Z,9.20
2022-11-29T15:08:35.964Z,9.63
2022-11-29T15:11:26.179Z,9.48
2022-11-29T15:14:01.265Z,10.85
2022-11-29T15:16:27.698Z,9.05
2022-11-29T15:19:03.234Z,9.00
2022-11-29T15:21:35.482Z,9.90
2022-11-29T15:24:09.097Z,8.93
2022-11-29T15:26:35.550Z,10.25
2022-11-29T15:29:15.054Z,10.13
2022-11-29T15:31:43.173Z,9.65
2022-11-29T15:34:19.938Z,9.77
2022-11-29T15:36:46.423Z,10.43
2022-11-29T15:39:30.757Z,9.68
2022-11-29T15:42:04.778Z,10.02
2022-11-29T15:44:32.806Z,9.32
2022-11-29T15:47:37.852Z,9.32
2022-11-29T15:50:23.137Z,10.20
2022-11-29T15:52:49.573Z,9.93
2022-11-29T15:55:16.072Z,9.73
2022-11-29T15:57:43.299Z,9.73
2022-11-29T16:00:17.091Z,9.70
2022-11-29T16:02:50.350Z,10.13
2022-11-29T16:05:21.420Z,9.68
2022-11-29T16:07:49.235Z,9.70
2022-11-29T16:10:20.442Z,10.90
2022-11-29T16:13:01.105Z,11.40
2022-11-29T16:15:27.558Z,10.52
2022-11-29T16:17:54.104Z,13.00
2022-11-29T16:20:24.348Z,11.02
2022-11-29T16:23:23.065Z,11.93
2022-11-29T16:26:04.671Z,10.55
2022-11-29T16:28:36.392Z,11.30
2022-11-29T16:31:04.872Z,11.63
2022-11-29T16:33:31.583Z,11.68
2022-11-29T16:36:05.035Z,10.93
2022-11-29T16:38:31.922Z,11.05
2022-11-29T16:41:03.468Z,12.07
2022-11-29T16:43:54.154Z,11.90
2022-11-29T16:46:20.664Z,10.40
2022-11-29T16:48:47.961Z,10.65
2022-11-29T16:51:16.219Z,10.60
2022-11-29T16:53:43.589Z,12.27
2022-11-29T16:56:14.355Z,11.20
2022-11-29T16:59:16.572Z,10.85
2022-11-29T17:01:28.845Z,10.88
2022-11-29T17:03:56.438Z,13.90
2022-11-29T17:06:23.751Z,11.40
2022-11-29T17:08:53.920Z,11.02
2022-11-29T17:11:20.377Z,11.88
2022-11-29T17:13:47.310Z,12.40
2022-11-29T17:16:14.794Z,11.35
2022-11-29T17:18:42.200Z,10.02
2022-11-29T17:21:17.765Z,10.85
2022-11-29T17:23:44.305Z,11.57
2022-11-29T17:26:10.924Z,11.63
2022-11-29T17:28:37.409Z,12.43
2022-11-29T17:31:12.999Z,11.88
2022-11-29T17:33:39.664Z,11.80
2022-11-29T17:36:10.396Z,12.75
2022-11-29T17:38:37.287Z,13.27
2022-11-29T17:41:07.582Z,12.75
2022-11-29T17:43:34.762Z,11.90
2022-11-29T17:46:08.273Z,13.98
2022-11-29T17:48:34.818Z,12.48
2022-11-29T17:51:01.500Z,12.60
2022-11-29T17:53:28.116Z,12.40
2022-11-29T17:55:54.721Z,13.40
2022-11-29T17:58:21.177Z,12.98
2022-11-29T18:00:47.613Z,14.40
2022-11-29T18:03:14.037Z,14.07
2022-11-29T18:05:40.518Z,14.13
2022-11-29T18:08:06.929Z,12.20
2022-11-29T18:10:34.194Z,14.43
2022-11-29T18:13:00.591Z,13.63
2022-11-29T18:15:27.131Z,14.40
2022-11-29T18:17:53.560Z,14.10
2022-11-29T18:20:19.966Z,15.35
2022-11-29T18:22:46.385Z,15.75
2022-11-29T18:25:37.690Z,15.05
2022-11-29T18:27:59.179Z,13.98
2022-11-29T18:30:25.700Z,14.80
2022-11-29T18:32:52.128Z,14.45
2022-11-29T18:35:21.571Z,14.43
2022-11-29T18:38:13.911Z,15.05
2022-11-29T18:40:40.887Z,15.48
2022-11-29T18:43:07.424Z,13.50
2022-11-29T18:45:34.718Z,13.43
2022-11-29T18:48:01.296Z,14.13
2022-11-29T18:50:27.721Z,14.07
2022-11-29T18:52:55.731Z,14.80
2022-11-29T18:55:22.251Z,13.13
2022-11-29T18:57:49.458Z,13.48
2022-11-29T19:00:16.201Z,14.93
2022-11-29T19:02:45.380Z,14.23
2022-11-29T19:05:16.243Z,12.63
2022-11-29T19:07:43.917Z,13.48
2022-11-29T19:10:10.586Z,14.30
2022-11-29T19:12:36.969Z,13.07
2022-11-29T19:15:03.575Z,13.45
2022-11-29T19:17:30.022Z,14.73
2022-11-29T19:19:56.468Z,13.80
2022-11-29T19:22:22.900Z,12.90
2022-11-29T19:24:49.550Z,12.85
2022-11-29T19:27:16.591Z,13.40
2022-11-29T19:29:43.019Z,12.48
2022-11-29T19:32:09.487Z,13.27
2022-11-29T19:34:35.927Z,12.45
2022-11-29T19:37:02.396Z,12.57
2022-11-29T19:39:29.368Z,12.65
2022-11-29T19:41:55.788Z,12.75
2022-11-29T19:44:27.990Z,12.30
2022-11-29T19:46:56.308Z,12.45
2022-11-29T19:49:22.677Z,14.70
2022-11-29T19:51:49.095Z,13.90
2022-11-29T19:54:15.606Z,13.30
2022-11-29T19:56:43.195Z,14.82
2022-11-29T19:59:09.608Z,13.75
2022-11-29T20:01:43.848Z,13.20
2022-11-29T20:04:11.975Z,13.05
2022-11-29T20:06:38.547Z,13.90
2022-11-29T20:09:05.920Z,14.13
2022-11-29T20:11:32.306Z,13.77
2022-11-29T20:13:59.987Z,13.80
2022-11-29T20:16:27.289Z,14.43
2022-11-29T20:18:54.079Z,12.63
2022-11-29T20:21:22.149Z,13.63
2022-11-29T20:23:48.604Z,14.10
2022-11-29T20:26:20.309Z,13.40
2022-11-29T20:28:47.564Z,15.10
2022-11-29T20:31:15.485Z,14.23
2022-11-29T20:33:42.801Z,12.88
2022-11-29T20:36:32.712Z,13.30
2022-11-29T20:39:18.131Z,13.48
2022-11-29T20:41:53.346Z,15.48
2022-11-29T20:44:20.912Z,13.65
2022-11-29T20:46:47.424Z,14.07
2022-11-29T20:49:15.110Z,13.43
2022-11-29T20:51:51.644Z,14.20
2022-11-29T20:54:19.116Z,13.55
2022-11-29T20:56:45.601Z,13.90
2022-11-29T20:59:12.053Z,13.27
2022-11-29T21:01:38.515Z,13.77
2022-11-29T21:04:05.328Z,12.90
2022-11-29T21:06:34.373Z,13.48
2022-11-29T21:09:00.815Z,13.32
2022-11-29T21:11:27.258Z,13.85
2022-11-29T21:13:53.900Z,13.20
2022-11-29T21:16:26.731Z,13.07
2022-11-29T21:18:54.523Z,14.65
2022-11-29T21:21:39.333Z,13.52
2022-11-29T21:24:08.754Z,13.27
2022-11-29T21:26:42.200Z,13.63
2022-11-29T21:29:19.073Z,13.35
2022-11-29T21:31:46.518Z,13.23
2022-11-29T21:34:12.945Z,13.05
2022-11-29T21:36:39.738Z,13.77
2022-11-29T21:39:06.606Z,13.38
2022-11-29T21:41:33.390Z,13.95
2022-11-29T21:44:07.983Z,14.02
2022-11-29T21:46:35.277Z,13.25
2022-11-29T21:49:01.725Z,12.40
2022-11-29T21:51:28.166Z,13.68
2022-11-29T21:53:54.564Z,12.63
2022-11-29T21:56:20.941Z,12.90
2022-11-29T21:58:47.364Z,12.90
2022-11-29T22:01:15.679Z,12.95
2022-11-29T22:03:42.443Z,13.18
2022-11-29T22:06:12.719Z,12.65
2022-11-29T22:08:40.132Z,13.00
2022-11-29T22:11:10.729Z,14.23
2022-11-29T22:13:57.685Z,13.52
2022-11-29T22:16:24.216Z,12.48
2022-11-29T22:18:50.756Z,13.90
2022-11-29T22:21:17.187Z,13.45
2022-11-29T22:23:43.650Z,13.00
2022-11-29T22:26:10.081Z,13.52
2022-11-29T22:28:36.592Z,12.98
2022-11-29T22:31:04.198Z,12.63
2022-11-29T22:33:31.095Z,12.43
2022-11-29T22:36:01.739Z,12.52
2022-11-29T22:38:28.151Z,12.02
2022-11-29T22:40:54.490Z,12.52
2022-11-29T22:43:20.900Z,12.32
2022-11-29T22:45:47.626Z,11.98
2022-11-29T22:48:14.012Z,12.18
2022-11-29T22:50:40.409Z,12.63
2022-11-29T22:53:06.847Z,12.05
2022-11-29T22:55:33.254Z,11.50
2022-11-29T22:57:59.674Z,12.80
2022-11-29T23:00:26.264Z,13.15
2022-11-29T23:02:55.885Z,12.15
2022-11-29T23:05:22.312Z,12.82
2022-11-29T23:07:48.744Z,11.95
2022-11-29T23:10:15.265Z,12.30
2022-11-29T23:12:41.689Z,12.48
2022-11-29T23:15:08.306Z,11.88
2022-11-29T23:17:34.724Z,11.45
2022-11-29T23:20:01.160Z,12.25
2022-11-29T23:22:27.535Z,11.75
2022-11-29T23:24:53.947Z,11.60
2022-11-29T23:27:25.311Z,12.15
2022-11-29T23:29:51.741Z,11.48
2022-11-29T23:32:18.160Z,12.65
2022-11-29T23:34:44.949Z,11.35
2022-11-29T23:37:11.616Z,12.23
2022-11-29T23:39:38.040Z,11.85
2022-11-29T23:42:04.592Z,11.05
2022-11-29T23:44:30.978Z,11.32
2022-11-29T23:46:57.440Z,11.88
2022-11-29T23:49:23.870Z,11.70
2022-11-29T23:51:50.336Z,11.40
2022-11-29T23:54:16.847Z,11.15
2022-11-29T23:56:43.333Z,12.50
2022-11-29T23:59:09.785Z,11.13
